Terminal Aerodrome Forecast
Issued by NWS Green Bay, WI

Home | Current Version | Previous Version | Graphics & Text | Print | Product List | Glossary On
Versions: 1 2 3 4 5 6 7 8 9 10 11 12 13 14 15 16 17 18 19 20 21 22 23
000
FTUS43 KGRB 141141
TAFGRB
TAF
KGRB 141141Z 1412/1512 20008KT P6SM BKN200
     FM150000 17007KT P6SM -SN OVC035
     FM150200 17008KT 3SM -SN OVC025
     FM150300 17009KT 1 1/2SM -SN OVC018
     FM150900 12007KT 1SM -SN OVC012
      TEMPO 1509/1512 1/2SM SN OVC008=

USA.gov is the U.S. government's official web portal to all federal, state and local government web resources and services.